Time;durP1;ratioP1;P1;durP2;ratioP2;P2;SDS_P1;SDS_P2;PMS_P1;PMS_P2;Temp;Humidity;BMP_temperature;BMP_pressure;BME280_temperature;BME280_humidity;BME280_pressure;Samples;Min_cycle;Max_cycle;Signal;HPM_P1;HPM_P2
2023/05/30 00:00:57;;;;;;;4.20;2.50;;;14.60;1.00;;;;;;4964489;28;21082;-76
2023/05/30 00:03:24;;;;;;;4.97;2.57;;;14.60;1.00;;;;;;4958470;28;20463;-75
2023/05/30 00:05:51;;;;;;;4.90;2.53;;;14.60;1.00;;;;;;4961387;28;20459;-76
2023/05/30 00:08:20;;;;;;;3.27;2.00;;;14.60;1.00;;;;;;4958061;28;20472;-75
2023/05/30 00:10:47;;;;;;;4.13;2.90;;;14.70;1.00;;;;;;4964280;28;20459;-76
2023/05/30 00:13:14;;;;;;;5.57;3.17;;;14.80;1.00;;;;;;4961263;28;21280;-76
2023/05/30 00:15:44;;;;;;;3.13;2.23;;;14.70;1.00;;;;;;4960148;28;20517;-77
2023/05/30 00:18:12;;;;;;;4.70;3.27;;;14.70;1.00;;;;;;4961422;28;20588;-78
2023/05/30 00:20:39;;;;;;;3.87;2.53;;;14.60;1.00;;;;;;4963137;28;20496;-75
2023/05/30 00:23:06;;;;;;;4.50;2.60;;;14.60;1.00;;;;;;4960716;28;20850;-76
2023/05/30 00:25:37;;;;;;;7.10;2.70;;;14.50;1.00;;;;;;4961834;28;20669;-76
2023/05/30 00:28:07;;;;;;;4.73;2.50;;;14.50;1.00;;;;;;4963944;28;20471;-77
2023/05/30 00:30:35;;;;;;;5.03;2.10;;;14.40;1.00;;;;;;4948113;28;20471;-75
2023/05/30 00:33:02;;;;;;;3.80;2.07;;;14.40;1.00;;;;;;4960735;28;20499;-76
2023/05/30 00:35:29;;;;;;;8.63;2.93;;;14.40;1.00;;;;;;4964793;28;20475;-76
2023/05/30 00:37:56;;;;;;;6.13;2.00;;;14.30;1.00;;;;;;4964134;28;20480;-76
2023/05/30 00:40:23;;;;;;;4.30;2.23;;;14.30;1.00;;;;;;4960855;28;20564;-76
2023/05/30 00:42:52;;;;;;;5.03;2.50;;;14.30;1.00;;;;;;4960496;28;20452;-77
2023/05/30 00:45:19;;;;;;;5.20;2.97;;;14.20;1.00;;;;;;4961384;28;20570;-75
2023/05/30 00:47:48;;;;;;;4.70;2.33;;;14.20;1.00;;;;;;4963565;28;20484;-75
2023/05/30 00:50:16;;;;;;;6.13;3.00;;;14.20;1.00;;;;;;4956898;28;20542;-75
2023/05/30 00:52:43;;;;;;;4.13;2.30;;;14.10;1.00;;;;;;4957573;28;21321;-76
2023/05/30 00:55:10;;;;;;;4.57;2.37;;;14.10;1.00;;;;;;4961901;28;20551;-77
2023/05/30 00:57:37;;;;;;;5.10;2.40;;;14.00;1.00;;;;;;4967081;28;20470;-77
2023/05/30 01:00:07;;;;;;;4.43;2.50;;;14.00;1.00;;;;;;4965163;28;20447;-77
2023/05/30 01:02:35;;;;;;;4.00;2.17;;;13.90;1.00;;;;;;4965296;28;20611;-76
2023/05/30 01:05:02;;;;;;;3.07;2.50;;;13.80;1.00;;;;;;4962311;28;20576;-76
2023/05/30 01:07:29;;;;;;;4.23;2.93;;;13.70;1.00;;;;;;4947901;28;20514;-76
2023/05/30 01:09:57;;;;;;;3.93;2.60;;;13.70;1.00;;;;;;4960302;28;20476;-77
2023/05/30 01:12:33;;;;;;;5.30;2.57;;;13.60;1.00;;;;;;4964897;28;20472;-77
2023/05/30 01:15:07;;;;;;;4.97;2.50;;;13.50;1.00;;;;;;4965255;28;20576;-76
2023/05/30 01:17:46;;;;;;;3.63;2.60;;;13.40;1.00;;;;;;4962900;28;20471;-76
2023/05/30 01:20:18;;;;;;;5.90;2.70;;;13.30;1.00;;;;;;4960201;28;20556;-77
2023/05/30 01:23:00;;;;;;;4.00;2.57;;;13.30;1.00;;;;;;4965143;28;20490;-77
2023/05/30 01:25:38;;;;;;;5.10;2.80;;;13.20;1.00;;;;;;4961881;28;21133;-76
2023/05/30 01:28:10;;;;;;;4.97;2.50;;;13.20;1.00;;;;;;4961083;28;21349;-77
2023/05/30 01:30:39;;;;;;;5.40;2.43;;;13.20;1.00;;;;;;4966886;28;20466;-77
2023/05/30 01:33:08;;;;;;;2.37;2.13;;;13.20;1.00;;;;;;4965344;28;21064;-77
2023/05/30 01:35:35;;;;;;;6.10;3.30;;;13.20;1.00;;;;;;4972041;28;20561;-77
2023/05/30 01:38:02;;;;;;;4.40;3.10;;;13.10;1.00;;;;;;4965979;28;20466;-77
2023/05/30 01:40:29;;;;;;;9.43;3.53;;;13.10;1.00;;;;;;4967751;28;20462;-77
2023/05/30 01:43:00;;;;;;;6.17;2.80;;;13.10;1.00;;;;;;4966529;28;20986;-78
2023/05/30 01:45:42;;;;;;;4.80;2.20;;;13.10;1.00;;;;;;4964590;28;20912;-77
2023/05/30 01:48:15;;;;;;;4.00;2.53;;;13.10;1.00;;;;;;4963933;28;20571;-77
2023/05/30 01:50:47;;;;;;;7.10;2.60;;;13.10;1.00;;;;;;4961320;28;20477;-76
2023/05/30 01:53:20;;;;;;;5.50;2.73;;;13.10;1.00;;;;;;4963439;28;20997;-77
2023/05/30 01:55:48;;;;;;;5.47;2.83;;;13.10;1.00;;;;;;4963870;28;20478;-77
2023/05/30 01:58:19;;;;;;;6.53;3.40;;;13.00;1.00;;;;;;4963904;28;20472;-77
2023/05/30 02:00:51;;;;;;;3.83;2.90;;;12.90;1.00;;;;;;4962166;28;20514;-77
2023/05/30 02:03:19;;;;;;;3.70;2.83;;;12.90;1.00;;;;;;4961632;28;20542;-77
2023/05/30 02:05:46;;;;;;;3.70;2.57;;;12.90;1.00;;;;;;4960203;28;20473;-77
2023/05/30 02:08:13;;;;;;;5.90;2.93;;;12.90;1.00;;;;;;4958277;28;20540;-77
2023/05/30 02:10:40;;;;;;;5.53;2.63;;;12.80;1.00;;;;;;4960893;28;20474;-76
2023/05/30 02:13:07;;;;;;;7.47;3.40;;;12.80;1.00;;;;;;4960940;28;20556;-77
2023/05/30 02:15:34;;;;;;;5.10;2.40;;;12.80;1.00;;;;;;4963570;28;20473;-77
2023/05/30 02:18:04;;;;;;;3.90;2.23;;;12.70;1.00;;;;;;4960042;28;20424;-76
2023/05/30 02:20:31;;;;;;;5.17;3.20;;;12.70;1.00;;;;;;4961015;28;20441;-77
2023/05/30 02:22:58;;;;;;;6.23;3.23;;;12.70;1.00;;;;;;4962786;28;20585;-77
2023/05/30 02:25:28;;;;;;;5.40;2.93;;;12.70;1.00;;;;;;4950579;28;20465;-77
2023/05/30 02:27:55;;;;;;;4.07;3.00;;;12.70;1.00;;;;;;4961181;28;21009;-78
2023/05/30 02:30:22;;;;;;;4.60;3.37;;;12.70;1.00;;;;;;4962205;28;20450;-77
2023/05/30 02:32:49;;;;;;;7.90;3.30;;;12.60;1.00;;;;;;4968161;28;20484;-76
2023/05/30 02:35:17;;;;;;;5.53;2.87;;;12.60;1.00;;;;;;4963350;28;20972;-77
2023/05/30 02:37:49;;;;;;;7.63;3.67;;;12.60;1.00;;;;;;4963795;28;20470;-77
2023/05/30 02:40:16;;;;;;;5.10;2.87;;;12.60;1.00;;;;;;4962059;28;21007;-78
2023/05/30 02:42:43;;;;;;;6.40;4.00;;;12.60;1.00;;;;;;4962804;28;20967;-77
2023/05/30 02:45:11;;;;;;;8.33;3.30;;;12.60;1.00;;;;;;4963626;28;20500;-77
2023/05/30 02:47:40;;;;;;;7.50;2.90;;;12.60;1.00;;;;;;4948723;28;20544;-78
2023/05/30 02:50:08;;;;;;;4.23;3.07;;;12.60;1.00;;;;;;4962690;28;20980;-76
2023/05/30 02:52:36;;;;;;;5.00;3.00;;;12.50;1.00;;;;;;4961597;28;21173;-77
2023/05/30 02:55:04;;;;;;;6.20;3.00;;;12.50;1.00;;;;;;4944796;28;20474;-76
2023/05/30 02:57:32;;;;;;;6.87;3.53;;;12.50;1.00;;;;;;4963389;28;20895;-76
2023/05/30 02:59:59;;;;;;;10.03;3.73;;;12.50;1.00;;;;;;4961510;28;20486;-76
2023/05/30 03:02:26;;;;;;;5.50;2.83;;;12.40;1.00;;;;;;4964180;28;20983;-78
2023/05/30 03:04:55;;;;;;;4.10;2.87;;;12.40;1.00;;;;;;4959865;28;20950;-77
2023/05/30 03:07:22;;;;;;;6.30;3.40;;;12.40;1.00;;;;;;4962652;28;20465;-78
2023/05/30 03:09:52;;;;;;;8.60;4.13;;;12.40;1.00;;;;;;4961684;28;20441;-78
2023/05/30 03:12:22;;;;;;;7.53;3.60;;;12.40;1.00;;;;;;4960190;28;20457;-78
2023/05/30 03:14:50;;;;;;;7.00;4.10;;;12.40;1.00;;;;;;4961845;28;20559;-78
2023/05/30 03:17:17;;;;;;;6.90;3.83;;;12.30;1.00;;;;;;4950055;28;20417;-78
2023/05/30 03:19:44;;;;;;;13.40;5.60;;;12.30;1.00;;;;;;4961812;28;20536;-78
2023/05/30 03:22:11;;;;;;;8.33;4.57;;;12.30;1.00;;;;;;4943664;28;20430;-76
2023/05/30 03:24:39;;;;;;;5.13;3.60;;;12.20;1.00;;;;;;4959644;28;20506;-79
2023/05/30 03:27:07;;;;;;;5.93;2.70;;;12.20;1.00;;;;;;4965210;28;20512;-77
2023/05/30 03:29:34;;;;;;;8.93;3.70;;;12.20;1.00;;;;;;4969747;28;20480;-77
2023/05/30 03:32:01;;;;;;;14.37;5.27;;;12.20;1.00;;;;;;4956631;28;20484;-79
2023/05/30 03:34:30;;;;;;;5.83;3.33;;;12.20;1.00;;;;;;4965627;28;20940;-77
2023/05/30 03:36:57;;;;;;;11.63;3.40;;;12.20;1.00;;;;;;4961825;28;20472;-78
2023/05/30 03:39:25;;;;;;;13.97;4.03;;;12.20;1.00;;;;;;4964908;28;20477;-77
2023/05/30 03:41:52;;;;;;;17.17;5.53;;;12.20;1.00;;;;;;4962752;28;21027;-78
2023/05/30 03:44:21;;;;;;;10.97;4.97;;;12.20;1.00;;;;;;4966979;28;20500;-77
2023/05/30 03:46:48;;;;;;;49.47;11.20;;;12.20;1.00;;;;;;4966538;28;20520;-77
2023/05/30 03:49:15;;;;;;;30.20;6.90;;;12.20;1.00;;;;;;4966095;28;20522;-77
2023/05/30 03:51:42;;;;;;;18.80;5.13;;;12.30;1.00;;;;;;4965956;28;20511;-77
2023/05/30 03:54:09;;;;;;;29.97;7.00;;;12.40;1.00;;;;;;4967937;28;20624;-77
2023/05/30 03:56:37;;;;;;;20.80;6.50;;;12.30;1.00;;;;;;4968944;28;20527;-77
2023/05/30 03:59:03;;;;;;;14.60;4.93;;;12.40;1.00;;;;;;4966424;28;20451;-77
2023/05/30 04:01:33;;;;;;;8.87;4.13;;;12.40;1.00;;;;;;4959237;28;20475;-77
2023/05/30 04:04:00;;;;;;;18.10;4.90;;;12.50;1.00;;;;;;4958959;28;20468;-77
2023/05/30 04:06:27;;;;;;;9.40;3.67;;;12.50;1.00;;;;;;4964844;28;20453;-77
2023/05/30 04:08:54;;;;;;;7.07;3.87;;;12.60;1.00;;;;;;4962907;28;20490;-77
2023/05/30 04:11:21;;;;;;;12.07;4.50;;;12.60;1.00;;;;;;4964114;28;20569;-77
2023/05/30 04:13:48;;;;;;;9.20;4.47;;;12.60;1.00;;;;;;4968058;28;20440;-77
2023/05/30 04:16:15;;;;;;;9.40;4.17;;;12.70;1.00;;;;;;4964667;28;21334;-77
2023/05/30 04:18:46;;;;;;;7.13;4.10;;;12.80;1.00;;;;;;4967260;28;20485;-78
2023/05/30 04:21:13;;;;;;;7.07;3.90;;;12.90;1.00;;;;;;4963341;28;21045;-81
2023/05/30 04:23:42;;;;;;;11.97;4.70;;;13.00;1.00;;;;;;4961330;28;20466;-76
2023/05/30 04:26:10;;;;;;;6.67;3.70;;;13.00;1.00;;;;;;4962780;28;21287;-76
2023/05/30 04:28:38;;;;;;;7.53;3.57;;;13.10;1.00;;;;;;4962585;28;21033;-77
2023/05/30 04:31:06;;;;;;;5.10;3.00;;;13.20;1.00;;;;;;4960617;28;20466;-77
2023/05/30 04:33:35;;;;;;;4.53;3.17;;;13.30;1.00;;;;;;4967274;28;20553;-76
2023/05/30 04:36:06;;;;;;;7.20;4.00;;;13.40;1.00;;;;;;4968494;28;20567;-77
2023/05/30 04:38:34;;;;;;;5.80;2.80;;;13.50;1.00;;;;;;4969126;28;21335;-76
2023/05/30 04:41:01;;;;;;;13.00;4.53;;;13.50;1.00;;;;;;4968129;28;20975;-76
2023/05/30 04:43:29;;;;;;;9.53;4.20;;;13.50;1.00;;;;;;4969519;28;20505;-79
2023/05/30 04:45:59;;;;;;;3.53;2.77;;;13.60;1.00;;;;;;4968979;28;20427;-77
2023/05/30 04:48:27;;;;;;;12.03;3.70;;;13.70;1.00;;;;;;4964657;28;20493;-76
2023/05/30 04:50:56;;;;;;;7.10;3.47;;;13.70;1.00;;;;;;4968306;28;20855;-78
2023/05/30 04:53:25;;;;;;;8.40;3.30;;;13.80;1.00;;;;;;4969004;28;20507;-78
2023/05/30 04:55:52;;;;;;;7.27;3.57;;;13.80;1.00;;;;;;4970631;28;20497;-77
2023/05/30 04:58:19;;;;;;;7.53;3.40;;;13.90;1.00;;;;;;4965910;28;20477;-77
2023/05/30 05:00:48;;;;;;;6.27;3.57;;;13.90;1.00;;;;;;4968235;28;20467;-78
2023/05/30 05:03:15;;;;;;;8.27;3.83;;;14.00;1.00;;;;;;4966667;28;20483;-78
2023/05/30 05:05:42;;;;;;;3.50;2.77;;;14.00;1.00;;;;;;4969060;28;21578;-77
2023/05/30 05:08:09;;;;;;;7.13;3.33;;;14.10;1.00;;;;;;4968821;28;21079;-77
2023/05/30 05:10:37;;;;;;;14.47;9.80;;;14.20;1.00;;;;;;4969882;28;20448;-78
2023/05/30 05:13:04;;;;;;;5.70;3.37;;;14.30;1.00;;;;;;4956658;28;20578;-77
2023/05/30 05:15:31;;;;;;;5.90;3.53;;;14.40;1.00;;;;;;4967665;28;20443;-77
2023/05/30 05:17:59;;;;;;;5.87;3.13;;;14.40;1.00;;;;;;4968890;28;20437;-76
2023/05/30 05:20:27;;;;;;;5.23;2.83;;;14.50;1.00;;;;;;4968301;28;21837;-76
2023/05/30 05:22:56;;;;;;;5.40;3.57;;;14.60;1.00;;;;;;4965832;28;20991;-78
2023/05/30 05:25:23;;;;;;;6.00;3.10;;;14.70;1.00;;;;;;4962496;28;20475;-79
2023/05/30 05:27:52;;;;;;;4.77;2.70;;;14.70;1.00;;;;;;4966659;28;21108;-76
2023/05/30 05:30:19;;;;;;;5.17;3.07;;;14.80;1.00;;;;;;4962040;28;20476;-77
2023/05/30 05:32:47;;;;;;;8.63;4.40;;;14.90;1.00;;;;;;4968132;28;20459;-77
2023/05/30 05:35:14;;;;;;;7.43;4.20;;;15.00;1.00;;;;;;4945218;28;20492;-76
2023/05/30 05:37:41;;;;;;;8.77;5.50;;;15.10;1.00;;;;;;4967140;28;20542;-77
2023/05/30 05:40:13;;;;;;;4.83;3.57;;;15.30;1.00;;;;;;4968513;28;20487;-77
2023/05/30 05:42:40;;;;;;;7.53;3.60;;;15.30;1.00;;;;;;4971219;28;20442;-75
2023/05/30 05:45:09;;;;;;;7.10;3.50;;;15.40;1.00;;;;;;4970753;28;20471;-77
2023/05/30 05:47:37;;;;;;;5.63;2.90;;;15.50;1.00;;;;;;4962127;28;20561;-75
2023/05/30 05:50:07;;;;;;;4.47;3.60;;;15.60;1.00;;;;;;4961070;28;20622;-73
2023/05/30 05:52:34;;;;;;;11.67;4.23;;;15.70;1.00;;;;;;4963961;28;20511;-73
2023/05/30 05:55:01;;;;;;;9.93;4.00;;;15.80;1.00;;;;;;4960953;28;20482;-74
2023/05/30 05:57:28;;;;;;;7.80;3.80;;;15.80;1.00;;;;;;4967344;28;20499;-75
2023/05/30 05:59:55;;;;;;;10.23;3.60;;;15.90;1.00;;;;;;4963078;28;20475;-75
2023/05/30 06:02:23;;;;;;;5.33;3.37;;;16.10;1.00;;;;;;4962279;28;20504;-75
2023/05/30 06:04:50;;;;;;;6.63;3.17;;;16.30;1.00;;;;;;4964568;28;21090;-78
2023/05/30 06:07:18;;;;;;;4.77;2.73;;;16.50;1.00;;;;;;4969606;28;21318;-74
2023/05/30 06:09:45;;;;;;;4.13;2.93;;;16.50;1.00;;;;;;4964440;28;20500;-74
2023/05/30 06:12:12;;;;;;;8.47;2.93;;;16.60;1.00;;;;;;4963135;28;20592;-76
2023/05/30 06:14:39;;;;;;;7.87;6.63;;;16.60;1.00;;;;;;4960407;28;20624;-74
2023/05/30 06:17:06;;;;;;;7.53;3.10;;;16.70;1.00;;;;;;4960887;28;20481;-73
2023/05/30 06:19:34;;;;;;;6.33;3.00;;;16.80;1.00;;;;;;4960307;28;20540;-73
2023/05/30 06:22:02;;;;;;;8.70;3.80;;;16.70;1.00;;;;;;4961652;28;20498;-74
2023/05/30 06:24:29;;;;;;;7.90;3.40;;;16.70;1.00;;;;;;4965153;28;20548;-72
2023/05/30 06:26:56;;;;;;;5.20;3.20;;;16.80;1.00;;;;;;4970114;28;20477;-74
2023/05/30 06:29:27;;;;;;;4.20;3.20;;;16.90;1.00;;;;;;4963328;28;20457;-74
2023/05/30 06:31:58;;;;;;;6.10;2.80;;;17.00;1.00;;;;;;4963927;28;20585;-74
2023/05/30 06:34:25;;;;;;;6.13;4.30;;;17.10;1.00;;;;;;4961283;28;20491;-75
2023/05/30 06:37:07;;;;;;;6.67;3.40;;;17.10;1.00;;;;;;4952213;28;20924;-75
2023/05/30 06:39:34;;;;;;;3.67;2.63;;;17.20;1.00;;;;;;4957223;28;20562;-75
2023/05/30 06:42:02;;;;;;;5.60;3.40;;;17.20;1.00;;;;;;4961785;28;20488;-76
2023/05/30 06:44:29;;;;;;;3.97;3.53;;;17.30;1.00;;;;;;4973193;28;20584;-74
2023/05/30 06:46:59;;;;;;;6.73;3.20;;;17.30;1.00;;;;;;4968241;28;20504;-75
2023/05/30 06:49:26;;;;;;;7.70;3.10;;;17.40;1.00;;;;;;4972597;28;20481;-74
2023/05/30 06:51:53;;;;;;;4.53;2.37;;;17.50;1.00;;;;;;4971245;28;20453;-76
2023/05/30 06:54:22;;;;;;;6.93;4.17;;;17.60;1.00;;;;;;4974139;28;20456;-74
2023/05/30 06:56:49;;;;;;;5.13;3.67;;;17.70;1.00;;;;;;4963639;28;20502;-78
2023/05/30 06:59:16;;;;;;;7.13;3.40;;;17.80;1.00;;;;;;4962774;28;20491;-73
2023/05/30 07:01:43;;;;;;;6.80;2.67;;;17.90;1.00;;;;;;4965180;28;20831;-74
2023/05/30 07:04:10;;;;;;;8.40;2.70;;;17.90;1.00;;;;;;4962827;28;21191;-76
2023/05/30 07:06:37;;;;;;;5.10;3.00;;;17.90;1.00;;;;;;4968027;28;20430;-76
2023/05/30 07:09:04;;;;;;;7.50;2.80;;;18.00;1.00;;;;;;4966487;28;20972;-75
2023/05/30 07:11:32;;;;;;;10.77;3.03;;;18.10;1.00;;;;;;4964429;28;20591;-75
2023/05/30 07:13:59;;;;;;;15.20;4.47;;;18.00;1.00;;;;;;4966513;28;20469;-76
2023/05/30 07:16:26;;;;;;;6.70;3.37;;;18.10;1.00;;;;;;4964642;28;20555;-74
2023/05/30 07:18:54;;;;;;;8.97;3.23;;;18.30;1.00;;;;;;4965942;28;20473;-75
2023/05/30 07:21:23;;;;;;;4.77;2.37;;;18.40;1.00;;;;;;4967105;28;20478;-74
2023/05/30 07:23:50;;;;;;;6.33;2.63;;;18.40;1.00;;;;;;4959019;28;20937;-73
2023/05/30 07:26:17;;;;;;;9.20;4.80;;;18.40;1.00;;;;;;4964239;28;20963;-77
2023/05/30 07:28:46;;;;;;;4.57;2.73;;;18.50;1.00;;;;;;4962214;28;20525;-74
2023/05/30 07:31:13;;;;;;;4.40;2.93;;;18.60;1.00;;;;;;4965334;28;20477;-76
2023/05/30 07:33:40;;;;;;;4.60;2.90;;;18.70;1.00;;;;;;4963819;28;20459;-77
2023/05/30 07:36:08;;;;;;;4.33;2.43;;;18.80;1.00;;;;;;4961073;28;20479;-76
2023/05/30 07:38:36;;;;;;;4.23;2.70;;;18.80;1.00;;;;;;4963458;28;20462;-78
2023/05/30 07:41:03;;;;;;;3.93;2.10;;;18.80;1.00;;;;;;4965295;28;20475;-76
2023/05/30 07:43:31;;;;;;;7.03;3.20;;;18.90;1.00;;;;;;4966433;28;20816;-75
2023/05/30 07:45:59;;;;;;;3.80;3.30;;;18.90;1.00;;;;;;4960283;28;20578;-75
2023/05/30 07:48:27;;;;;;;6.93;3.27;;;19.10;1.00;;;;;;4967572;28;20456;-76
2023/05/30 07:50:55;;;;;;;3.60;2.30;;;19.10;1.00;;;;;;4961906;28;21089;-73
2023/05/30 07:53:22;;;;;;;9.23;3.33;;;19.20;1.00;;;;;;4960511;28;20629;-74
2023/05/30 07:55:49;;;;;;;9.00;4.40;;;19.20;1.00;;;;;;4960111;28;20932;-73
2023/05/30 07:58:16;;;;;;;6.93;3.50;;;19.30;1.00;;;;;;4963415;28;20495;-74
2023/05/30 08:00:44;;;;;;;5.50;2.63;;;19.50;1.00;;;;;;4964946;28;20457;-83
2023/05/30 08:03:12;;;;;;;5.30;3.20;;;19.70;1.00;;;;;;4961462;28;20525;-74
2023/05/30 08:05:39;;;;;;;10.07;4.10;;;19.80;1.00;;;;;;4960970;28;20564;-75
2023/05/30 08:08:07;;;;;;;3.33;2.70;;;20.00;1.00;;;;;;4962926;28;20472;-75
2023/05/30 08:10:34;;;;;;;4.83;2.60;;;20.10;1.00;;;;;;4960713;28;20459;-75
2023/05/30 08:13:01;;;;;;;4.93;3.10;;;20.40;1.00;;;;;;4964515;28;20488;-72
2023/05/30 08:15:28;;;;;;;4.90;2.60;;;20.60;1.00;;;;;;4965075;28;20473;-73
2023/05/30 08:18:00;;;;;;;6.60;2.67;;;20.30;1.00;;;;;;4961402;28;20467;-72
2023/05/30 08:20:30;;;;;;;5.53;2.60;;;20.40;1.00;;;;;;4968479;28;20460;-72
2023/05/30 08:22:58;;;;;;;5.43;3.00;;;20.50;1.00;;;;;;4968018;28;20471;-73
2023/05/30 08:25:32;;;;;;;4.83;2.90;;;20.60;1.00;;;;;;4963004;28;20484;-73
2023/05/30 08:27:59;;;;;;;4.37;2.10;;;20.60;1.00;;;;;;4959893;28;20461;-74
2023/05/30 08:30:26;;;;;;;6.20;4.80;;;20.70;1.00;;;;;;4963562;28;20473;-73
2023/05/30 08:32:54;;;;;;;5.77;2.90;;;20.80;1.00;;;;;;4963465;28;20472;-75
2023/05/30 08:35:21;;;;;;;5.97;3.50;;;21.00;1.00;;;;;;4964086;28;20481;-75
2023/05/30 08:37:50;;;;;;;5.73;2.40;;;21.10;1.00;;;;;;4971501;28;20477;-77
2023/05/30 08:40:20;;;;;;;4.30;2.20;;;21.00;1.00;;;;;;4969060;28;20474;-76
2023/05/30 08:42:48;;;;;;;8.30;4.37;;;21.00;1.00;;;;;;4971786;28;20465;-74
2023/05/30 08:45:15;;;;;;;5.97;2.60;;;21.10;1.00;;;;;;4967887;28;20618;-74
2023/05/30 08:47:43;;;;;;;10.47;6.63;;;21.10;1.00;;;;;;4965239;28;20471;-74
2023/05/30 08:50:11;;;;;;;5.13;2.10;;;21.20;1.00;;;;;;4964784;28;20475;-75
2023/05/30 08:52:41;;;;;;;6.60;3.23;;;21.50;1.00;;;;;;4966116;28;20465;-75
2023/05/30 08:55:12;;;;;;;6.67;3.00;;;21.70;1.00;;;;;;4962299;28;20512;-73
2023/05/30 08:57:44;;;;;;;4.37;1.80;;;21.70;1.00;;;;;;4958734;28;20481;-74
2023/05/30 09:00:13;;;;;;;5.23;2.70;;;21.70;1.00;;;;;;4956517;28;20471;-73
2023/05/30 09:02:42;;;;;;;6.40;3.10;;;21.80;1.00;;;;;;4960190;28;20472;-73
2023/05/30 09:05:11;;;;;;;5.20;3.00;;;21.80;1.00;;;;;;4961083;28;20541;-76
2023/05/30 09:07:41;;;;;;;5.73;2.50;;;21.90;1.00;;;;;;4965356;28;20618;-77
2023/05/30 09:10:11;;;;;;;5.30;2.60;;;21.80;1.00;;;;;;4961946;28;20433;-76
2023/05/30 09:12:39;;;;;;;5.50;2.63;;;21.80;1.00;;;;;;4963668;28;20459;-76
2023/05/30 09:15:07;;;;;;;6.87;3.10;;;21.90;1.00;;;;;;4963459;28;20476;-76
2023/05/30 09:17:34;;;;;;;5.07;2.87;;;22.00;1.00;;;;;;4949467;28;20485;-74
2023/05/30 09:20:02;;;;;;;7.37;3.00;;;22.10;1.00;;;;;;4966164;28;20634;-76
2023/05/30 09:22:31;;;;;;;4.40;2.67;;;22.10;1.00;;;;;;4960951;28;20457;-79
2023/05/30 09:25:01;;;;;;;4.93;3.00;;;22.20;1.00;;;;;;4968554;28;20466;-79
2023/05/30 09:27:32;;;;;;;8.17;2.90;;;22.40;1.00;;;;;;4971936;28;20547;-78
2023/05/30 09:30:06;;;;;;;7.87;3.10;;;22.60;1.00;;;;;;4967870;28;20451;-76
2023/05/30 09:32:38;;;;;;;5.17;3.00;;;22.80;1.00;;;;;;4970398;28;20440;-81
2023/05/30 09:35:09;;;;;;;3.83;2.83;;;23.30;1.00;;;;;;4964000;28;20480;-76
2023/05/30 09:37:37;;;;;;;3.43;2.80;;;24.70;1.00;;;;;;4971922;28;20481;-80
2023/05/30 09:40:09;;;;;;;4.23;2.50;;;26.30;1.00;;;;;;4969804;28;20518;-76
2023/05/30 09:42:44;;;;;;;4.03;2.77;;;27.50;1.00;;;;;;4969911;28;21341;-74
2023/05/30 09:45:12;;;;;;;4.87;3.10;;;28.80;1.00;;;;;;4964587;28;20474;-67
2023/05/30 09:47:41;;;;;;;5.57;3.40;;;29.60;1.00;;;;;;4962922;28;20550;-67
2023/05/30 09:50:09;;;;;;;5.93;2.53;;;30.20;1.00;;;;;;4973668;28;20867;-67
2023/05/30 09:52:37;;;;;;;4.60;2.60;;;30.80;1.00;;;;;;4966927;28;20466;-70
2023/05/30 09:55:06;;;;;;;5.53;2.90;;;31.10;1.00;;;;;;4954806;28;20509;-77
2023/05/30 09:57:36;;;;;;;6.20;2.90;;;31.20;1.00;;;;;;4965826;28;20471;-75
2023/05/30 10:00:10;;;;;;;4.70;2.37;;;31.30;1.00;;;;;;4962393;28;20496;-75
2023/05/30 10:02:42;;;;;;;6.63;3.17;;;31.40;1.00;;;;;;4960378;28;21042;-75
2023/05/30 10:05:19;;;;;;;6.10;2.97;;;31.70;1.00;;;;;;4971124;28;20474;-78
2023/05/30 10:07:48;;;;;;;6.30;3.10;;;32.00;1.00;;;;;;4972666;28;20903;-79
2023/05/30 10:10:16;;;;;;;4.77;2.60;;;31.60;1.00;;;;;;4971264;28;20456;-78
2023/05/30 10:12:44;;;;;;;7.50;2.90;;;31.80;1.00;;;;;;4975920;28;20882;-78
2023/05/30 10:15:13;;;;;;;3.73;2.10;;;32.40;1.00;;;;;;4969733;28;20484;-78
2023/05/30 10:17:50;;;;;;;3.80;2.53;;;32.40;1.00;;;;;;4974542;28;20656;-79
2023/05/30 10:20:21;;;;;;;4.30;2.97;;;31.90;1.00;;;;;;4970571;28;20466;-77
2023/05/30 10:22:52;;;;;;;6.23;2.70;;;31.20;1.00;;;;;;4970610;28;20456;-78
2023/05/30 10:25:20;;;;;;;3.13;2.83;;;30.50;1.00;;;;;;4971270;28;20488;-81
2023/05/30 10:27:50;;;;;;;7.33;4.53;;;31.00;1.00;;;;;;4972333;28;20464;-82
2023/05/30 10:30:25;;;;;;;4.40;2.50;;;32.00;1.00;;;;;;4961296;28;20474;-81
2023/05/30 10:33:00;;;;;;;6.10;3.20;;;32.80;1.00;;;;;;4967341;28;20463;-83
2023/05/30 10:35:30;;;;;;;8.43;4.80;;;33.20;1.00;;;;;;4974735;28;20524;-82
2023/05/30 10:38:00;;;;;;;5.33;3.13;;;33.60;1.00;;;;;;4976702;28;20586;-81
2023/05/30 10:40:49;;;;;;;3.83;2.60;;;34.20;1.00;;;;;;4969427;28;20464;-82
2023/05/30 10:43:37;;;;;;;10.30;3.73;;;34.70;1.00;;;;;;4973308;28;20615;-81
2023/05/30 10:46:17;;;;;;;8.97;3.90;;;35.10;1.00;;;;;;4972594;28;20510;-80
2023/05/30 10:48:52;;;;;;;2.90;2.17;;;35.90;1.00;;;;;;4968704;28;20440;-81
2023/05/30 10:51:22;;;;;;;3.90;2.60;;;36.40;1.00;;;;;;4969349;28;20478;-81
2023/05/30 10:53:50;;;;;;;6.37;3.17;;;36.40;1.00;;;;;;4960381;28;20496;-81
2023/05/30 10:56:40;;;;;;;4.33;2.83;;;36.40;1.00;;;;;;4964464;28;20483;-78
2023/05/30 10:59:13;;;;;;;4.93;3.93;;;36.10;1.00;;;;;;4962570;28;20460;-76
2023/05/30 11:01:42;;;;;;;4.60;2.80;;;35.90;1.00;;;;;;4965284;28;20484;-78
2023/05/30 11:04:13;;;;;;;6.00;2.80;;;35.90;1.00;;;;;;4962379;28;20579;-78
2023/05/30 11:06:46;;;;;;;3.23;2.93;;;36.30;1.00;;;;;;4970528;28;20477;-77
2023/05/30 11:09:15;;;;;;;7.00;3.80;;;36.50;1.00;;;;;;4969403;28;20490;-77
2023/05/30 11:11:43;;;;;;;5.50;2.53;;;36.70;1.00;;;;;;4968082;28;20456;-78
2023/05/30 11:14:12;;;;;;;3.63;2.87;;;36.90;1.00;;;;;;4962977;28;20463;-77
2023/05/30 11:16:50;;;;;;;4.90;3.73;;;37.40;1.00;;;;;;4962565;28;20511;-75
2023/05/30 11:19:18;;;;;;;4.87;3.13;;;38.10;1.00;;;;;;4959574;28;20471;-74
2023/05/30 11:21:59;;;;;;;3.30;2.50;;;38.60;1.00;;;;;;4961148;28;20587;-73
2023/05/30 11:24:27;;;;;;;3.83;3.10;;;38.50;1.00;;;;;;4960750;28;20460;-74
2023/05/30 11:26:56;;;;;;;5.60;5.07;;;38.60;1.00;;;;;;4965045;28;20474;-75
2023/05/30 11:29:33;;;;;;;9.63;7.67;;;38.60;1.00;;;;;;4968533;28;21259;-75
2023/05/30 11:32:02;;;;;;;6.07;3.77;;;38.50;1.00;;;;;;4951031;28;20965;-75
2023/05/30 11:34:29;;;;;;;5.10;3.50;;;38.90;1.00;;;;;;4969788;28;20448;-75
2023/05/30 11:36:57;;;;;;;3.53;2.53;;;39.20;1.00;;;;;;4965224;28;20517;-74
2023/05/30 11:39:25;;;;;;;4.67;3.07;;;39.40;1.00;;;;;;4958190;28;20545;-74
2023/05/30 11:41:53;;;;;;;4.60;2.77;;;39.50;1.00;;;;;;4960157;28;20466;-74
2023/05/30 11:44:21;;;;;;;3.17;2.37;;;39.90;1.00;;;;;;4954922;28;21768;-73
2023/05/30 11:47:07;;;;;;;4.43;2.73;;;40.20;1.00;;;;;;4965790;28;20531;-74
2023/05/30 11:49:34;;;;;;;3.57;3.23;;;40.70;1.00;;;;;;4960183;28;20587;-74
2023/05/30 11:52:02;;;;;;;4.50;2.07;;;40.90;1.00;;;;;;4953343;28;20542;-76
2023/05/30 11:54:29;;;;;;;4.73;3.80;;;41.00;1.00;;;;;;4959017;28;21357;-74
2023/05/30 11:56:58;;;;;;;3.50;3.20;;;40.80;1.00;;;;;;4965742;28;20460;-74
2023/05/30 11:59:26;;;;;;;7.00;3.87;;;40.60;1.00;;;;;;4958367;28;20512;-74
2023/05/30 12:01:56;;;;;;;6.23;4.13;;;40.10;1.00;;;;;;4962191;28;21003;-74
2023/05/30 12:04:26;;;;;;;2.23;2.03;;;40.30;1.00;;;;;;4961166;28;21083;-73
2023/05/30 12:06:53;;;;;;;3.50;2.93;;;40.50;1.00;;;;;;4966831;28;20582;-74
2023/05/30 12:09:21;;;;;;;4.00;2.47;;;40.50;1.00;;;;;;4960261;28;20468;-73
2023/05/30 12:11:59;;;;;;;2.93;2.63;;;40.70;1.00;;;;;;4965264;28;20459;-74
2023/05/30 12:14:30;;;;;;;7.43;2.67;;;40.60;1.00;;;;;;4960483;28;20487;-75
2023/05/30 12:16:59;;;;;;;5.60;3.40;;;41.20;1.00;;;;;;4960971;28;20476;-76
2023/05/30 12:19:31;;;;;;;5.13;3.37;;;40.40;1.00;;;;;;4961610;28;21029;-73
2023/05/30 12:21:58;;;;;;;5.10;2.93;;;40.10;1.00;;;;;;4961843;28;20848;-73
2023/05/30 12:24:25;;;;;;;5.27;2.90;;;40.50;1.00;;;;;;4958338;28;20479;-73
2023/05/30 12:26:56;;;;;;;6.40;2.63;;;40.50;1.00;;;;;;4961792;28;20466;-75
2023/05/30 12:29:25;;;;;;;2.47;2.27;;;40.70;1.00;;;;;;4963141;28;20468;-73
2023/05/30 12:31:53;;;;;;;9.20;3.93;;;40.30;1.00;;;;;;4957938;28;20469;-75
2023/05/30 12:34:20;;;;;;;6.27;2.50;;;40.30;1.00;;;;;;4962324;28;20468;-75
2023/05/30 12:36:50;;;;;;;12.70;6.30;;;40.40;1.00;;;;;;4962042;28;20483;-74
2023/05/30 12:39:17;;;;;;;3.70;2.53;;;40.30;1.00;;;;;;4959863;28;20926;-73
2023/05/30 12:41:44;;;;;;;3.67;2.57;;;40.40;1.00;;;;;;4956585;28;20467;-74
2023/05/30 12:44:18;;;;;;;6.93;2.93;;;40.00;1.00;;;;;;4944469;28;20977;-71
2023/05/30 12:46:45;;;;;;;3.67;2.00;;;39.60;1.00;;;;;;4959539;28;20851;-72
2023/05/30 12:49:12;;;;;;;2.50;2.10;;;39.70;1.00;;;;;;4961307;28;20907;-74
2023/05/30 12:51:40;;;;;;;5.07;2.73;;;40.00;1.00;;;;;;4961216;28;20495;-74
2023/05/30 12:54:10;;;;;;;3.47;2.30;;;40.30;1.00;;;;;;4968172;28;20538;-73
2023/05/30 12:56:37;;;;;;;3.80;2.67;;;40.10;1.00;;;;;;4962911;28;20855;-75
2023/05/30 12:59:05;;;;;;;5.47;3.37;;;40.50;1.00;;;;;;4964591;28;20969;-75
2023/05/30 13:01:32;;;;;;;2.93;2.67;;;41.00;1.00;;;;;;4963879;28;20564;-73
2023/05/30 13:03:59;;;;;;;3.53;2.27;;;41.00;1.00;;;;;;4965515;28;20495;-74